TimeEDT,TemperatureF,Dew PointF,Humidity,Sea Level PressureIn,VisibilityMPH,Wind Direction,Wind SpeedMPH,Gust SpeedMPH,PrecipitationIn,Events,Conditions,WindDirDegrees,DateUTC
12:54 AM,59.0,54.0,83,30.16,10.0,Calm,Calm,-,N/A,,Clear,0,2013-09-07 04:54:00
1:54 AM,57.9,53.1,84,30.15,10.0,Calm,Calm,-,N/A,,Clear,0,2013-09-07 05:54:00
2:54 AM,57.0,52.0,83,30.14,10.0,Calm,Calm,-,N/A,,Clear,0,2013-09-07 06:54:00
3:54 AM,55.9,51.1,84,30.13,10.0,Calm,Calm,-,N/A,,Clear,0,2013-09-07 07:54:00
4:54 AM,55.0,51.1,86,30.13,10.0,Calm,Calm,-,N/A,,Clear,0,2013-09-07 08:54:00
5:54 AM,54.0,50.0,86,30.13,10.0,Calm,Calm,-,N/A,,Clear,0,2013-09-07 09:54:00
6:54 AM,55.0,50.0,83,30.13,10.0,Calm,Calm,-,N/A,,Clear,0,2013-09-07 10:54:00
7:54 AM,60.1,53.1,78,30.13,10.0,Variable,4.6,-,N/A,,Scattered Clouds,0,2013-09-07 11:54:00
8:54 AM,66.0,57.0,73,30.13,10.0,Calm,Calm,-,N/A,,Clear,0,2013-09-07 12:54:00
9:54 AM,73.0,55.9,55,30.12,10.0,SSE,4.6,-,N/A,,Clear,150,2013-09-07 13:54:00
10:54 AM,75.9,55.9,50,30.12,10.0,West,3.5,-,N/A,,Partly Cloudy,280,2013-09-07 14:54:00
11:54 AM,79.0,54.0,42,30.10,10.0,West,9.2,-,N/A,,Scattered Clouds,270,2013-09-07 15:54:00
12:54 PM,78.1,53.1,42,30.08,10.0,West,5.8,-,N/A,,Partly Cloudy,260,2013-09-07 16:54:00
1:54 PM,78.1,52.0,40,30.06,10.0,NNE,8.1,-,N/A,,Partly Cloudy,20,2013-09-07 17:54:00
2:54 PM,80.1,53.1,39,30.03,10.0,NNW,4.6,-,N/A,,Scattered Clouds,340,2013-09-07 18:54:00
3:54 PM,80.1,53.1,39,30.01,10.0,Variable,3.5,-,N/A,,Scattered Clouds,0,2013-09-07 19:54:00
4:54 PM,80.1,54.0,40,29.99,10.0,SW,4.6,-,N/A,,Clear,230,2013-09-07 20:54:00
5:54 PM,79.0,55.0,44,29.99,10.0,WSW,8.1,-,N/A,,Clear,250,2013-09-07 21:54:00
6:54 PM,73.0,57.0,57,29.98,10.0,SW,5.8,-,N/A,,Clear,230,2013-09-07 22:54:00
7:54 PM,69.1,57.9,68,29.99,10.0,SSW,4.6,-,N/A,,Clear,210,2013-09-07 23:54:00
8:54 PM,66.9,59.0,76,29.99,10.0,SSW,5.8,-,N/A,,Clear,210,2013-09-08 00:54:00
9:54 PM,66.9,57.0,70,29.99,10.0,SSE,3.5,-,N/A,,Clear,160,2013-09-08 01:54:00
10:54 PM,64.9,57.9,78,29.97,10.0,South,4.6,-,N/A,,Clear,190,2013-09-08 02:54:00
11:54 PM,64.9,57.9,78,29.97,10.0,Calm,Calm,-,N/A,,Clear,0,2013-09-08 03:54:00